sensor_id;sensor_type;location;lat;lon;timestamp;temperature;humidity
17080;DHT22;8655;57.106;-2.088;2024-03-22T00:01:40;17.30;51.90
17080;DHT22;8655;57.106;-2.088;2024-03-22T00:04:05;17.30;51.80
17080;DHT22;8655;57.106;-2.088;2024-03-22T00:06:31;17.30;51.90
17080;DHT22;8655;57.106;-2.088;2024-03-22T00:08:57;17.30;51.90
17080;DHT22;8655;57.106;-2.088;2024-03-22T00:11:23;17.30;51.90
17080;DHT22;8655;57.106;-2.088;2024-03-22T00:13:48;17.30;51.90
17080;DHT22;8655;57.106;-2.088;2024-03-22T00:16:14;17.30;51.90
17080;DHT22;8655;57.106;-2.088;2024-03-22T00:18:40;17.20;51.90
17080;DHT22;8655;57.106;-2.088;2024-03-22T00:21:06;17.30;52.00
17080;DHT22;8655;57.106;-2.088;2024-03-22T00:23:31;17.30;52.00
17080;DHT22;8655;57.106;-2.088;2024-03-22T00:25:57;17.30;52.00
17080;DHT22;8655;57.106;-2.088;2024-03-22T00:28:23;17.30;52.00
17080;DHT22;8655;57.106;-2.088;2024-03-22T00:30:48;17.30;52.00
17080;DHT22;8655;57.106;-2.088;2024-03-22T00:33:14;17.30;52.00
17080;DHT22;8655;57.106;-2.088;2024-03-22T00:35:40;17.30;52.10
17080;DHT22;8655;57.106;-2.088;2024-03-22T00:38:05;17.30;52.10
17080;DHT22;8655;57.106;-2.088;2024-03-22T00:40:31;17.40;52.20
17080;DHT22;8655;57.106;-2.088;2024-03-22T00:42:57;17.40;52.20
17080;DHT22;8655;57.106;-2.088;2024-03-22T00:45:22;17.40;52.20
17080;DHT22;8655;57.106;-2.088;2024-03-22T00:47:48;17.40;52.30
17080;DHT22;8655;57.106;-2.088;2024-03-22T00:50:14;17.40;52.30
17080;DHT22;8655;57.106;-2.088;2024-03-22T00:52:39;17.40;52.30
17080;DHT22;8655;57.106;-2.088;2024-03-22T00:55:05;17.40;52.30
17080;DHT22;8655;57.106;-2.088;2024-03-22T00:57:31;17.50;52.40
17080;DHT22;8655;57.106;-2.088;2024-03-22T00:59:57;17.50;52.40
17080;DHT22;8655;57.106;-2.088;2024-03-22T01:02:22;17.50;52.40
17080;DHT22;8655;57.106;-2.088;2024-03-22T01:04:48;17.50;52.40
17080;DHT22;8655;57.106;-2.088;2024-03-22T01:07:14;17.50;52.40
17080;DHT22;8655;57.106;-2.088;2024-03-22T01:09:40;17.50;52.40
17080;DHT22;8655;57.106;-2.088;2024-03-22T01:12:06;17.50;52.40
17080;DHT22;8655;57.106;-2.088;2024-03-22T01:14:31;17.50;52.40
17080;DHT22;8655;57.106;-2.088;2024-03-22T01:16:57;17.60;52.50
17080;DHT22;8655;57.106;-2.088;2024-03-22T01:19:23;17.60;52.50
17080;DHT22;8655;57.106;-2.088;2024-03-22T01:21:49;17.60;52.50
17080;DHT22;8655;57.106;-2.088;2024-03-22T01:24:15;17.60;52.50
17080;DHT22;8655;57.106;-2.088;2024-03-22T01:26:40;17.60;52.50
17080;DHT22;8655;57.106;-2.088;2024-03-22T01:29:07;17.60;52.50
17080;DHT22;8655;57.106;-2.088;2024-03-22T01:31:32;17.60;52.50
17080;DHT22;8655;57.106;-2.088;2024-03-22T01:33:58;17.60;52.40
17080;DHT22;8655;57.106;-2.088;2024-03-22T01:36:24;17.60;52.40
17080;DHT22;8655;57.106;-2.088;2024-03-22T01:38:49;17.60;52.40
17080;DHT22;8655;57.106;-2.088;2024-03-22T01:41:15;17.60;52.40
17080;DHT22;8655;57.106;-2.088;2024-03-22T01:43:41;17.60;52.40
17080;DHT22;8655;57.106;-2.088;2024-03-22T01:46:07;17.60;52.30
17080;DHT22;8655;57.106;-2.088;2024-03-22T01:48:34;17.60;52.30
17080;DHT22;8655;57.106;-2.088;2024-03-22T01:51:00;17.60;52.30
17080;DHT22;8655;57.106;-2.088;2024-03-22T01:53:27;17.60;52.30
17080;DHT22;8655;57.106;-2.088;2024-03-22T01:55:52;17.60;52.30
17080;DHT22;8655;57.106;-2.088;2024-03-22T01:58:18;17.60;52.30
17080;DHT22;8655;57.106;-2.088;2024-03-22T02:00:44;17.60;52.80
17080;DHT22;8655;57.106;-2.088;2024-03-22T02:03:09;17.60;52.20
17080;DHT22;8655;57.106;-2.088;2024-03-22T02:05:35;17.60;52.20
17080;DHT22;8655;57.106;-2.088;2024-03-22T02:08:01;17.60;52.20
17080;DHT22;8655;57.106;-2.088;2024-03-22T02:10:27;17.60;52.20
17080;DHT22;8655;57.106;-2.088;2024-03-22T02:12:52;17.60;52.20
17080;DHT22;8655;57.106;-2.088;2024-03-22T02:15:18;17.60;52.20
17080;DHT22;8655;57.106;-2.088;2024-03-22T02:17:44;17.50;52.10
17080;DHT22;8655;57.106;-2.088;2024-03-22T02:20:10;17.60;52.20
17080;DHT22;8655;57.106;-2.088;2024-03-22T02:22:37;17.60;52.20
17080;DHT22;8655;57.106;-2.088;2024-03-22T02:25:04;17.50;52.10
17080;DHT22;8655;57.106;-2.088;2024-03-22T02:27:29;17.50;52.10
17080;DHT22;8655;57.106;-2.088;2024-03-22T02:29:55;17.50;52.00
17080;DHT22;8655;57.106;-2.088;2024-03-22T02:32:21;17.50;52.00
17080;DHT22;8655;57.106;-2.088;2024-03-22T02:34:47;17.50;52.00
17080;DHT22;8655;57.106;-2.088;2024-03-22T02:37:13;17.50;52.00
17080;DHT22;8655;57.106;-2.088;2024-03-22T02:39:38;17.50;52.00
17080;DHT22;8655;57.106;-2.088;2024-03-22T02:42:04;17.50;52.00
17080;DHT22;8655;57.106;-2.088;2024-03-22T02:44:30;17.50;52.00
17080;DHT22;8655;57.106;-2.088;2024-03-22T02:46:55;17.40;51.90
17080;DHT22;8655;57.106;-2.088;2024-03-22T02:49:21;17.40;51.90
17080;DHT22;8655;57.106;-2.088;2024-03-22T02:51:47;17.40;51.90
17080;DHT22;8655;57.106;-2.088;2024-03-22T02:54:12;17.40;51.90
17080;DHT22;8655;57.106;-2.088;2024-03-22T02:56:38;17.40;51.90
17080;DHT22;8655;57.106;-2.088;2024-03-22T02:59:04;17.40;51.80
17080;DHT22;8655;57.106;-2.088;2024-03-22T03:01:29;17.40;51.80
17080;DHT22;8655;57.106;-2.088;2024-03-22T03:03:55;17.40;51.80
17080;DHT22;8655;57.106;-2.088;2024-03-22T03:06:21;17.40;51.80
17080;DHT22;8655;57.106;-2.088;2024-03-22T03:08:46;17.30;51.70
17080;DHT22;8655;57.106;-2.088;2024-03-22T03:11:14;17.30;51.70
17080;DHT22;8655;57.106;-2.088;2024-03-22T03:13:39;17.30;51.70
17080;DHT22;8655;57.106;-2.088;2024-03-22T03:16:05;17.30;51.70
17080;DHT22;8655;57.106;-2.088;2024-03-22T03:18:31;17.30;51.60
17080;DHT22;8655;57.106;-2.088;2024-03-22T03:20:56;17.30;51.60
17080;DHT22;8655;57.106;-2.088;2024-03-22T03:23:22;17.30;51.60
17080;DHT22;8655;57.106;-2.088;2024-03-22T03:25:48;17.30;51.60
17080;DHT22;8655;57.106;-2.088;2024-03-22T03:28:14;17.20;51.50
17080;DHT22;8655;57.106;-2.088;2024-03-22T03:30:39;17.20;51.50
17080;DHT22;8655;57.106;-2.088;2024-03-22T03:33:05;17.20;51.50
17080;DHT22;8655;57.106;-2.088;2024-03-22T03:35:31;17.20;51.50
17080;DHT22;8655;57.106;-2.088;2024-03-22T03:37:56;17.20;51.50
17080;DHT22;8655;57.106;-2.088;2024-03-22T03:40:22;17.20;51.50
17080;DHT22;8655;57.106;-2.088;2024-03-22T03:42:50;17.10;51.50
17080;DHT22;8655;57.106;-2.088;2024-03-22T03:45:16;17.10;51.50
17080;DHT22;8655;57.106;-2.088;2024-03-22T03:47:42;17.10;51.40
17080;DHT22;8655;57.106;-2.088;2024-03-22T03:50:08;17.10;51.50
17080;DHT22;8655;57.106;-2.088;2024-03-22T03:52:33;17.10;51.40
17080;DHT22;8655;57.106;-2.088;2024-03-22T03:54:59;17.10;51.40
17080;DHT22;8655;57.106;-2.088;2024-03-22T03:57:25;17.10;51.40
17080;DHT22;8655;57.106;-2.088;2024-03-22T03:59:51;17.10;51.40
17080;DHT22;8655;57.106;-2.088;2024-03-22T04:02:17;17.10;51.40
17080;DHT22;8655;57.106;-2.088;2024-03-22T04:04:42;17.00;51.30
17080;DHT22;8655;57.106;-2.088;2024-03-22T04:07:08;17.00;51.30
17080;DHT22;8655;57.106;-2.088;2024-03-22T04:09:34;17.00;51.30
17080;DHT22;8655;57.106;-2.088;2024-03-22T04:12:00;17.00;51.30
17080;DHT22;8655;57.106;-2.088;2024-03-22T04:14:26;17.00;51.30
17080;DHT22;8655;57.106;-2.088;2024-03-22T04:16:52;17.00;51.30
17080;DHT22;8655;57.106;-2.088;2024-03-22T04:19:20;17.00;51.30
17080;DHT22;8655;57.106;-2.088;2024-03-22T04:21:46;17.00;51.30
17080;DHT22;8655;57.106;-2.088;2024-03-22T04:24:12;16.90;51.20
17080;DHT22;8655;57.106;-2.088;2024-03-22T04:26:38;16.90;51.20
17080;DHT22;8655;57.106;-2.088;2024-03-22T04:29:03;16.90;51.20
17080;DHT22;8655;57.106;-2.088;2024-03-22T04:31:29;16.90;51.80
17080;DHT22;8655;57.106;-2.088;2024-03-22T04:33:54;16.90;51.20
17080;DHT22;8655;57.106;-2.088;2024-03-22T04:36:21;16.90;51.20
17080;DHT22;8655;57.106;-2.088;2024-03-22T04:38:47;16.90;51.10
17080;DHT22;8655;57.106;-2.088;2024-03-22T04:41:13;16.90;51.10
17080;DHT22;8655;57.106;-2.088;2024-03-22T04:43:38;16.90;51.10
17080;DHT22;8655;57.106;-2.088;2024-03-22T04:46:04;16.90;51.20
17080;DHT22;8655;57.106;-2.088;2024-03-22T04:48:30;16.80;51.10
17080;DHT22;8655;57.106;-2.088;2024-03-22T04:50:56;16.80;51.00
17080;DHT22;8655;57.106;-2.088;2024-03-22T04:53:22;16.80;51.00
17080;DHT22;8655;57.106;-2.088;2024-03-22T04:55:48;16.80;51.00
17080;DHT22;8655;57.106;-2.088;2024-03-22T04:58:15;16.80;51.00
17080;DHT22;8655;57.106;-2.088;2024-03-22T05:00:43;16.80;51.00
17080;DHT22;8655;57.106;-2.088;2024-03-22T05:03:09;16.80;51.00
17080;DHT22;8655;57.106;-2.088;2024-03-22T05:05:35;16.80;51.00
17080;DHT22;8655;57.106;-2.088;2024-03-22T05:08:01;16.80;51.00
17080;DHT22;8655;57.106;-2.088;2024-03-22T05:10:28;16.70;50.90
17080;DHT22;8655;57.106;-2.088;2024-03-22T05:12:55;16.70;51.60
17080;DHT22;8655;57.106;-2.088;2024-03-22T05:15:21;16.70;50.90
17080;DHT22;8655;57.106;-2.088;2024-03-22T05:17:46;16.70;50.90
17080;DHT22;8655;57.106;-2.088;2024-03-22T05:20:12;16.70;50.90
17080;DHT22;8655;57.106;-2.088;2024-03-22T05:22:38;16.70;50.90
17080;DHT22;8655;57.106;-2.088;2024-03-22T05:25:04;16.70;50.90
17080;DHT22;8655;57.106;-2.088;2024-03-22T05:27:33;16.70;50.90
17080;DHT22;8655;57.106;-2.088;2024-03-22T05:29:59;16.70;50.90
17080;DHT22;8655;57.106;-2.088;2024-03-22T05:32:25;16.60;50.80
17080;DHT22;8655;57.106;-2.088;2024-03-22T05:34:51;16.60;50.80
17080;DHT22;8655;57.106;-2.088;2024-03-22T05:37:17;16.60;50.80
17080;DHT22;8655;57.106;-2.088;2024-03-22T05:39:43;16.60;50.80
17080;DHT22;8655;57.106;-2.088;2024-03-22T05:42:09;16.60;50.80
17080;DHT22;8655;57.106;-2.088;2024-03-22T05:44:35;16.60;50.80
17080;DHT22;8655;57.106;-2.088;2024-03-22T05:47:01;16.60;50.80
17080;DHT22;8655;57.106;-2.088;2024-03-22T05:49:27;16.60;50.80
17080;DHT22;8655;57.106;-2.088;2024-03-22T05:51:53;16.50;50.70
17080;DHT22;8655;57.106;-2.088;2024-03-22T05:54:18;16.50;50.70
17080;DHT22;8655;57.106;-2.088;2024-03-22T05:56:45;16.50;50.70
17080;DHT22;8655;57.106;-2.088;2024-03-22T05:59:11;16.50;50.70
17080;DHT22;8655;57.106;-2.088;2024-03-22T06:01:37;16.50;50.70
17080;DHT22;8655;57.106;-2.088;2024-03-22T06:04:04;16.50;50.70
17080;DHT22;8655;57.106;-2.088;2024-03-22T06:06:32;16.50;50.70
17080;DHT22;8655;57.106;-2.088;2024-03-22T06:08:58;16.40;50.60
17080;DHT22;8655;57.106;-2.088;2024-03-22T06:11:25;16.40;50.60
17080;DHT22;8655;57.106;-2.088;2024-03-22T06:13:51;16.40;50.60
17080;DHT22;8655;57.106;-2.088;2024-03-22T06:16:17;16.40;50.60
17080;DHT22;8655;57.106;-2.088;2024-03-22T06:18:43;16.40;50.60
17080;DHT22;8655;57.106;-2.088;2024-03-22T06:21:08;16.40;50.60
17080;DHT22;8655;57.106;-2.088;2024-03-22T06:23:34;16.40;50.60
17080;DHT22;8655;57.106;-2.088;2024-03-22T06:26:00;16.40;50.60
17080;DHT22;8655;57.106;-2.088;2024-03-22T06:28:28;16.40;50.60
17080;DHT22;8655;57.106;-2.088;2024-03-22T06:30:54;16.40;50.60
17080;DHT22;8655;57.106;-2.088;2024-03-22T06:33:20;16.30;50.50
17080;DHT22;8655;57.106;-2.088;2024-03-22T06:35:46;16.30;50.50
17080;DHT22;8655;57.106;-2.088;2024-03-22T06:38:12;16.30;50.50
17080;DHT22;8655;57.106;-2.088;2024-03-22T06:40:38;16.30;50.50
17080;DHT22;8655;57.106;-2.088;2024-03-22T06:43:04;16.30;50.50
17080;DHT22;8655;57.106;-2.088;2024-03-22T06:45:29;16.30;50.50
17080;DHT22;8655;57.106;-2.088;2024-03-22T06:47:55;16.30;50.50
17080;DHT22;8655;57.106;-2.088;2024-03-22T06:50:21;16.30;50.50
17080;DHT22;8655;57.106;-2.088;2024-03-22T06:52:51;16.30;50.50
17080;DHT22;8655;57.106;-2.088;2024-03-22T06:55:17;16.30;50.40
17080;DHT22;8655;57.106;-2.088;2024-03-22T06:57:44;16.30;50.50
17080;DHT22;8655;57.106;-2.088;2024-03-22T07:00:11;16.30;50.50
17080;DHT22;8655;57.106;-2.088;2024-03-22T07:02:37;16.30;50.50
17080;DHT22;8655;57.106;-2.088;2024-03-22T07:05:02;16.30;50.50
17080;DHT22;8655;57.106;-2.088;2024-03-22T07:07:29;16.30;50.60
17080;DHT22;8655;57.106;-2.088;2024-03-22T07:09:56;16.30;50.50
17080;DHT22;8655;57.106;-2.088;2024-03-22T07:12:22;16.40;50.70
17080;DHT22;8655;57.106;-2.088;2024-03-22T07:14:48;16.40;50.70
17080;DHT22;8655;57.106;-2.088;2024-03-22T07:17:13;16.40;50.80
17080;DHT22;8655;57.106;-2.088;2024-03-22T07:19:40;16.40;50.80
17080;DHT22;8655;57.106;-2.088;2024-03-22T07:22:06;16.50;50.90
17080;DHT22;8655;57.106;-2.088;2024-03-22T07:24:33;16.50;50.90
17080;DHT22;8655;57.106;-2.088;2024-03-22T07:26:58;16.50;51.00
17080;DHT22;8655;57.106;-2.088;2024-03-22T07:29:24;16.60;51.10
17080;DHT22;8655;57.106;-2.088;2024-03-22T07:31:50;16.60;51.20
17080;DHT22;8655;57.106;-2.088;2024-03-22T07:34:15;16.60;51.20
17080;DHT22;8655;57.106;-2.088;2024-03-22T07:36:41;16.70;51.30
17080;DHT22;8655;57.106;-2.088;2024-03-22T07:39:07;16.70;51.30
17080;DHT22;8655;57.106;-2.088;2024-03-22T07:41:33;16.70;51.40
17080;DHT22;8655;57.106;-2.088;2024-03-22T07:44:02;16.80;51.40
17080;DHT22;8655;57.106;-2.088;2024-03-22T07:46:28;16.80;51.50
17080;DHT22;8655;57.106;-2.088;2024-03-22T07:48:54;16.90;51.90
17080;DHT22;8655;57.106;-2.088;2024-03-22T07:51:20;16.90;51.60
17080;DHT22;8655;57.106;-2.088;2024-03-22T07:53:46;16.90;51.60
17080;DHT22;8655;57.106;-2.088;2024-03-22T07:56:12;17.00;51.80
17080;DHT22;8655;57.106;-2.088;2024-03-22T07:58:41;17.00;51.80
17080;DHT22;8655;57.106;-2.088;2024-03-22T08:01:06;17.10;51.90
17080;DHT22;8655;57.106;-2.088;2024-03-22T08:03:32;17.10;51.90
17080;DHT22;8655;57.106;-2.088;2024-03-22T08:05:58;17.10;51.90
17080;DHT22;8655;57.106;-2.088;2024-03-22T08:08:24;17.10;52.50
17080;DHT22;8655;57.106;-2.088;2024-03-22T08:10:50;17.20;52.00
17080;DHT22;8655;57.106;-2.088;2024-03-22T08:13:15;17.20;52.00
17080;DHT22;8655;57.106;-2.088;2024-03-22T08:15:41;17.20;52.00
17080;DHT22;8655;57.106;-2.088;2024-03-22T08:18:09;17.20;52.00
17080;DHT22;8655;57.106;-2.088;2024-03-22T08:20:34;17.30;52.10
17080;DHT22;8655;57.106;-2.088;2024-03-22T08:23:00;17.30;52.10
17080;DHT22;8655;57.106;-2.088;2024-03-22T08:25:26;17.30;52.00
17080;DHT22;8655;57.106;-2.088;2024-03-22T08:27:52;17.30;52.00
17080;DHT22;8655;57.106;-2.088;2024-03-22T08:30:21;17.30;52.00
17080;DHT22;8655;57.106;-2.088;2024-03-22T08:32:47;17.30;52.00
17080;DHT22;8655;57.106;-2.088;2024-03-22T08:35:13;17.30;52.00
17080;DHT22;8655;57.106;-2.088;2024-03-22T08:37:39;17.30;52.00
17080;DHT22;8655;57.106;-2.088;2024-03-22T08:40:05;17.30;52.00
17080;DHT22;8655;57.106;-2.088;2024-03-22T08:42:30;17.30;52.00
17080;DHT22;8655;57.106;-2.088;2024-03-22T08:44:56;17.30;52.00
17080;DHT22;8655;57.106;-2.088;2024-03-22T08:47:22;17.30;52.00
17080;DHT22;8655;57.106;-2.088;2024-03-22T08:49:48;17.30;52.00
17080;DHT22;8655;57.106;-2.088;2024-03-22T08:52:15;17.30;52.00
17080;DHT22;8655;57.106;-2.088;2024-03-22T08:54:40;17.30;51.90
17080;DHT22;8655;57.106;-2.088;2024-03-22T08:57:06;17.30;51.90
17080;DHT22;8655;57.106;-2.088;2024-03-22T08:59:32;17.30;51.90
17080;DHT22;8655;57.106;-2.088;2024-03-22T09:01:58;17.30;51.90
17080;DHT22;8655;57.106;-2.088;2024-03-22T09:04:25;17.30;51.90
17080;DHT22;8655;57.106;-2.088;2024-03-22T09:06:50;17.30;51.80
17080;DHT22;8655;57.106;-2.088;2024-03-22T09:09:16;17.30;51.80
17080;DHT22;8655;57.106;-2.088;2024-03-22T09:11:42;17.30;51.80
17080;DHT22;8655;57.106;-2.088;2024-03-22T09:14:08;17.30;51.80
17080;DHT22;8655;57.106;-2.088;2024-03-22T09:16:34;17.30;51.80
17080;DHT22;8655;57.106;-2.088;2024-03-22T09:19:00;17.30;51.80
17080;DHT22;8655;57.106;-2.088;2024-03-22T09:21:25;17.30;51.70
17080;DHT22;8655;57.106;-2.088;2024-03-22T09:23:51;17.30;51.70
17080;DHT22;8655;57.106;-2.088;2024-03-22T09:26:17;17.30;51.70
17080;DHT22;8655;57.106;-2.088;2024-03-22T09:28:46;17.20;51.60
17080;DHT22;8655;57.106;-2.088;2024-03-22T09:31:11;17.20;51.50
17080;DHT22;8655;57.106;-2.088;2024-03-22T09:33:37;17.20;51.50
17080;DHT22;8655;57.106;-2.088;2024-03-22T09:36:03;17.20;51.50
17080;DHT22;8655;57.106;-2.088;2024-03-22T09:38:29;17.20;51.50
17080;DHT22;8655;57.106;-2.088;2024-03-22T09:40:55;17.20;51.50
17080;DHT22;8655;57.106;-2.088;2024-03-22T09:43:23;17.20;51.50
17080;DHT22;8655;57.106;-2.088;2024-03-22T09:45:52;17.20;51.50
17080;DHT22;8655;57.106;-2.088;2024-03-22T09:48:19;17.10;51.90
17080;DHT22;8655;57.106;-2.088;2024-03-22T09:50:48;17.10;51.40
17080;DHT22;8655;57.106;-2.088;2024-03-22T09:53:19;17.10;51.30
17080;DHT22;8655;57.106;-2.088;2024-03-22T09:55:47;17.10;51.30
17080;DHT22;8655;57.106;-2.088;2024-03-22T09:58:12;17.10;51.30
17080;DHT22;8655;57.106;-2.088;2024-03-22T10:00:38;17.10;51.30
17080;DHT22;8655;57.106;-2.088;2024-03-22T10:03:04;17.10;51.20
17080;DHT22;8655;57.106;-2.088;2024-03-22T10:05:30;17.10;51.80
17080;DHT22;8655;57.106;-2.088;2024-03-22T10:07:57;17.00;51.20
17080;DHT22;8655;57.106;-2.088;2024-03-22T10:10:23;17.00;51.10
17080;DHT22;8655;57.106;-2.088;2024-03-22T10:12:49;17.00;51.10
17080;DHT22;8655;57.106;-2.088;2024-03-22T10:15:14;17.00;51.10
17080;DHT22;8655;57.106;-2.088;2024-03-22T10:17:42;17.00;51.10
17080;DHT22;8655;57.106;-2.088;2024-03-22T10:20:08;17.00;51.10
17080;DHT22;8655;57.106;-2.088;2024-03-22T10:23:08;17.00;51.00
17080;DHT22;8655;57.106;-2.088;2024-03-22T10:25:34;17.00;51.00
17080;DHT22;8655;57.106;-2.088;2024-03-22T10:28:00;16.90;50.90
17080;DHT22;8655;57.106;-2.088;2024-03-22T10:30:26;16.90;50.90
17080;DHT22;8655;57.106;-2.088;2024-03-22T10:32:53;16.90;50.90
17080;DHT22;8655;57.106;-2.088;2024-03-22T10:35:19;16.90;51.10
17080;DHT22;8655;57.106;-2.088;2024-03-22T10:37:44;16.90;50.90
17080;DHT22;8655;57.106;-2.088;2024-03-22T10:40:11;16.90;50.90
17080;DHT22;8655;57.106;-2.088;2024-03-22T10:42:40;16.90;50.90
17080;DHT22;8655;57.106;-2.088;2024-03-22T10:45:08;16.90;50.90
17080;DHT22;8655;57.106;-2.088;2024-03-22T10:47:36;16.90;50.90
17080;DHT22;8655;57.106;-2.088;2024-03-22T10:50:11;16.90;50.90
17080;DHT22;8655;57.106;-2.088;2024-03-22T10:55:28;16.90;50.90
17080;DHT22;8655;57.106;-2.088;2024-03-22T10:57:57;16.80;50.80
17080;DHT22;8655;57.106;-2.088;2024-03-22T11:00:30;16.90;50.80
17080;DHT22;8655;57.106;-2.088;2024-03-22T11:02:56;16.80;50.70
17080;DHT22;8655;57.106;-2.088;2024-03-22T11:05:22;16.80;50.70
17080;DHT22;8655;57.106;-2.088;2024-03-22T11:07:58;16.80;50.70
17080;DHT22;8655;57.106;-2.088;2024-03-22T11:10:29;16.80;50.70
17080;DHT22;8655;57.106;-2.088;2024-03-22T11:13:04;16.80;50.70
17080;DHT22;8655;57.106;-2.088;2024-03-22T11:15:30;16.80;50.60
17080;DHT22;8655;57.106;-2.088;2024-03-22T11:17:57;16.80;50.60
17080;DHT22;8655;57.106;-2.088;2024-03-22T11:20:23;16.80;50.60
17080;DHT22;8655;57.106;-2.088;2024-03-22T11:22:51;16.80;50.50
17080;DHT22;8655;57.106;-2.088;2024-03-22T11:25:17;16.80;50.60
17080;DHT22;8655;57.106;-2.088;2024-03-22T11:27:43;16.80;50.60
17080;DHT22;8655;57.106;-2.088;2024-03-22T11:30:09;16.80;50.50
17080;DHT22;8655;57.106;-2.088;2024-03-22T11:32:34;16.80;50.50
17080;DHT22;8655;57.106;-2.088;2024-03-22T11:35:14;16.80;50.50
17080;DHT22;8655;57.106;-2.088;2024-03-22T11:37:40;16.80;50.50
17080;DHT22;8655;57.106;-2.088;2024-03-22T11:40:10;16.70;50.50
17080;DHT22;8655;57.106;-2.088;2024-03-22T11:42:41;16.70;50.40
17080;DHT22;8655;57.106;-2.088;2024-03-22T11:45:11;16.70;50.50
17080;DHT22;8655;57.106;-2.088;2024-03-22T11:47:38;16.70;50.40
17080;DHT22;8655;57.106;-2.088;2024-03-22T11:50:04;16.70;50.40
17080;DHT22;8655;57.106;-2.088;2024-03-22T11:52:30;16.70;50.40
17080;DHT22;8655;57.106;-2.088;2024-03-22T11:54:56;16.70;50.40
17080;DHT22;8655;57.106;-2.088;2024-03-22T11:57:23;16.70;50.50
17080;DHT22;8655;57.106;-2.088;2024-03-22T11:59:50;16.70;50.40
17080;DHT22;8655;57.106;-2.088;2024-03-22T12:02:16;16.70;50.40
17080;DHT22;8655;57.106;-2.088;2024-03-22T12:04:45;16.70;50.50
17080;DHT22;8655;57.106;-2.088;2024-03-22T12:07:15;16.70;50.40
17080;DHT22;8655;57.106;-2.088;2024-03-22T12:09:41;16.70;50.40
17080;DHT22;8655;57.106;-2.088;2024-03-22T12:12:09;16.70;50.40
17080;DHT22;8655;57.106;-2.088;2024-03-22T12:14:35;16.70;50.90
17080;DHT22;8655;57.106;-2.088;2024-03-22T12:17:02;16.70;50.30
17080;DHT22;8655;57.106;-2.088;2024-03-22T12:19:28;16.70;50.30
17080;DHT22;8655;57.106;-2.088;2024-03-22T12:21:54;16.70;50.30
17080;DHT22;8655;57.106;-2.088;2024-03-22T12:24:20;16.70;50.30
17080;DHT22;8655;57.106;-2.088;2024-03-22T12:26:46;16.70;50.30
17080;DHT22;8655;57.106;-2.088;2024-03-22T12:29:13;16.70;50.40
17080;DHT22;8655;57.106;-2.088;2024-03-22T12:31:38;16.70;50.30
17080;DHT22;8655;57.106;-2.088;2024-03-22T12:34:04;16.60;50.20
17080;DHT22;8655;57.106;-2.088;2024-03-22T12:36:30;16.60;50.20
17080;DHT22;8655;57.106;-2.088;2024-03-22T12:38:56;16.60;50.20
17080;DHT22;8655;57.106;-2.088;2024-03-22T12:41:21;16.60;50.20
17080;DHT22;8655;57.106;-2.088;2024-03-22T12:43:47;16.60;50.20
17080;DHT22;8655;57.106;-2.088;2024-03-22T12:46:13;16.60;50.20
17080;DHT22;8655;57.106;-2.088;2024-03-22T12:48:38;16.60;50.20
17080;DHT22;8655;57.106;-2.088;2024-03-22T12:51:04;16.60;50.20
17080;DHT22;8655;57.106;-2.088;2024-03-22T12:53:30;16.60;50.20
17080;DHT22;8655;57.106;-2.088;2024-03-22T12:55:56;16.60;50.20
17080;DHT22;8655;57.106;-2.088;2024-03-22T12:58:21;16.60;50.20
17080;DHT22;8655;57.106;-2.088;2024-03-22T13:00:47;16.60;50.10
17080;DHT22;8655;57.106;-2.088;2024-03-22T13:03:13;16.60;50.10
17080;DHT22;8655;57.106;-2.088;2024-03-22T13:05:40;16.60;50.10
17080;DHT22;8655;57.106;-2.088;2024-03-22T13:08:06;16.60;50.10
17080;DHT22;8655;57.106;-2.088;2024-03-22T13:10:32;16.60;50.10
17080;DHT22;8655;57.106;-2.088;2024-03-22T13:12:58;16.60;50.10
17080;DHT22;8655;57.106;-2.088;2024-03-22T13:15:24;16.60;50.10
17080;DHT22;8655;57.106;-2.088;2024-03-22T13:17:50;16.60;50.10
17080;DHT22;8655;57.106;-2.088;2024-03-22T13:20:18;16.60;50.10
17080;DHT22;8655;57.106;-2.088;2024-03-22T13:22:44;16.60;50.10
17080;DHT22;8655;57.106;-2.088;2024-03-22T13:25:10;16.60;50.10
17080;DHT22;8655;57.106;-2.088;2024-03-22T13:27:37;16.60;50.00
17080;DHT22;8655;57.106;-2.088;2024-03-22T13:30:06;16.60;50.00
17080;DHT22;8655;57.106;-2.088;2024-03-22T13:32:38;16.60;50.00
17080;DHT22;8655;57.106;-2.088;2024-03-22T13:35:04;16.50;49.90
17080;DHT22;8655;57.106;-2.088;2024-03-22T13:37:30;16.50;50.00
17080;DHT22;8655;57.106;-2.088;2024-03-22T13:39:56;16.50;49.90
17080;DHT22;8655;57.106;-2.088;2024-03-22T13:42:22;16.50;50.00
17080;DHT22;8655;57.106;-2.088;2024-03-22T13:44:47;16.50;49.90
17080;DHT22;8655;57.106;-2.088;2024-03-22T13:47:13;16.50;49.90
17080;DHT22;8655;57.106;-2.088;2024-03-22T13:49:39;16.50;49.90
17080;DHT22;8655;57.106;-2.088;2024-03-22T13:52:08;16.50;50.00
17080;DHT22;8655;57.106;-2.088;2024-03-22T13:54:34;16.50;49.90
17080;DHT22;8655;57.106;-2.088;2024-03-22T13:57:00;16.50;50.00
17080;DHT22;8655;57.106;-2.088;2024-03-22T13:59:26;16.50;49.90
17080;DHT22;8655;57.106;-2.088;2024-03-22T14:01:52;16.50;49.90
17080;DHT22;8655;57.106;-2.088;2024-03-22T14:04:18;16.50;49.90
17080;DHT22;8655;57.106;-2.088;2024-03-22T14:06:45;16.50;49.90
17080;DHT22;8655;57.106;-2.088;2024-03-22T14:09:11;16.50;49.90
17080;DHT22;8655;57.106;-2.088;2024-03-22T14:11:39;16.50;49.90
17080;DHT22;8655;57.106;-2.088;2024-03-22T14:14:05;16.50;49.90
17080;DHT22;8655;57.106;-2.088;2024-03-22T14:16:31;16.50;49.90
17080;DHT22;8655;57.106;-2.088;2024-03-22T14:18:56;16.50;49.90
17080;DHT22;8655;57.106;-2.088;2024-03-22T14:21:22;16.50;49.90
17080;DHT22;8655;57.106;-2.088;2024-03-22T14:23:49;16.50;49.90
17080;DHT22;8655;57.106;-2.088;2024-03-22T14:26:16;16.50;49.90
17080;DHT22;8655;57.106;-2.088;2024-03-22T14:28:42;16.50;49.80
17080;DHT22;8655;57.106;-2.088;2024-03-22T14:31:08;16.50;49.80
17080;DHT22;8655;57.106;-2.088;2024-03-22T14:33:35;16.50;49.80
17080;DHT22;8655;57.106;-2.088;2024-03-22T14:36:02;16.50;49.80
17080;DHT22;8655;57.106;-2.088;2024-03-22T14:38:28;16.50;49.80
17080;DHT22;8655;57.106;-2.088;2024-03-22T14:40:55;16.50;49.80
17080;DHT22;8655;57.106;-2.088;2024-03-22T14:43:23;16.50;50.40
17080;DHT22;8655;57.106;-2.088;2024-03-22T14:45:53;16.50;49.90
17080;DHT22;8655;57.106;-2.088;2024-03-22T14:48:22;16.50;49.80
17080;DHT22;8655;57.106;-2.088;2024-03-22T14:50:48;16.50;49.90
17080;DHT22;8655;57.106;-2.088;2024-03-22T14:53:15;16.50;49.90
17080;DHT22;8655;57.106;-2.088;2024-03-22T14:56:02;16.50;49.80
17080;DHT22;8655;57.106;-2.088;2024-03-22T14:58:32;16.40;49.80
17080;DHT22;8655;57.106;-2.088;2024-03-22T15:01:00;16.50;49.80
17080;DHT22;8655;57.106;-2.088;2024-03-22T15:03:26;16.50;49.80
17080;DHT22;8655;57.106;-2.088;2024-03-22T15:05:54;16.50;49.80
17080;DHT22;8655;57.106;-2.088;2024-03-22T15:08:20;16.50;49.80
17080;DHT22;8655;57.106;-2.088;2024-03-22T15:10:47;16.40;49.70
17080;DHT22;8655;57.106;-2.088;2024-03-22T15:13:13;16.50;49.80
17080;DHT22;8655;57.106;-2.088;2024-03-22T15:15:39;16.50;49.80
17080;DHT22;8655;57.106;-2.088;2024-03-22T15:18:06;16.40;49.70
17080;DHT22;8655;57.106;-2.088;2024-03-22T15:20:32;16.40;49.70
17080;DHT22;8655;57.106;-2.088;2024-03-22T15:22:58;16.40;49.60
17080;DHT22;8655;57.106;-2.088;2024-03-22T15:25:24;16.40;49.60
17080;DHT22;8655;57.106;-2.088;2024-03-22T15:27:49;16.40;49.60